sensor_id;sensor_type;location;lat;lon;timestamp;P1;durP1;ratioP1;P2;durP2;ratioP2
43311;SDS011;30041;48.300;16.352;2023-05-14T00:00:21;4.53;;;2.20;;
43311;SDS011;30041;48.300;16.352;2023-05-14T00:02:46;4.93;;;2.13;;
43311;SDS011;30041;48.300;16.352;2023-05-14T00:05:12;3.60;;;2.17;;
43311;SDS011;30041;48.300;16.352;2023-05-14T00:07:37;2.72;;;2.10;;
43311;SDS011;30041;48.300;16.352;2023-05-14T00:10:02;3.20;;;2.20;;
43311;SDS011;30041;48.300;16.352;2023-05-14T00:12:28;2.90;;;2.15;;
43311;SDS011;30041;48.300;16.352;2023-05-14T00:14:54;3.13;;;2.20;;
43311;SDS011;30041;48.300;16.352;2023-05-14T00:17:20;3.33;;;2.17;;
43311;SDS011;30041;48.300;16.352;2023-05-14T00:19:45;2.90;;;2.10;;
43311;SDS011;30041;48.300;16.352;2023-05-14T00:22:11;3.55;;;2.13;;
43311;SDS011;30041;48.300;16.352;2023-05-14T00:24:36;3.15;;;2.15;;
43311;SDS011;30041;48.300;16.352;2023-05-14T00:27:02;2.50;;;2.00;;
43311;SDS011;30041;48.300;16.352;2023-05-14T00:29:28;3.30;;;2.25;;
43311;SDS011;30041;48.300;16.352;2023-05-14T00:31:53;3.72;;;2.10;;
43311;SDS011;30041;48.300;16.352;2023-05-14T00:34:19;2.47;;;1.70;;
43311;SDS011;30041;48.300;16.352;2023-05-14T00:36:44;3.60;;;2.10;;
43311;SDS011;30041;48.300;16.352;2023-05-14T00:39:10;2.67;;;1.80;;
43311;SDS011;30041;48.300;16.352;2023-05-14T00:41:35;5.00;;;2.17;;
43311;SDS011;30041;48.300;16.352;2023-05-14T00:44:01;2.50;;;1.75;;
43311;SDS011;30041;48.300;16.352;2023-05-14T00:46:26;2.92;;;2.08;;
43311;SDS011;30041;48.300;16.352;2023-05-14T00:48:52;2.65;;;1.90;;
43311;SDS011;30041;48.300;16.352;2023-05-14T00:51:17;3.97;;;2.20;;
43311;SDS011;30041;48.300;16.352;2023-05-14T00:53:44;3.33;;;1.80;;
43311;SDS011;30041;48.300;16.352;2023-05-14T00:56:10;2.55;;;2.00;;
43311;SDS011;30041;48.300;16.352;2023-05-14T00:58:35;3.08;;;2.17;;
43311;SDS011;30041;48.300;16.352;2023-05-14T01:01:01;2.63;;;1.90;;
43311;SDS011;30041;48.300;16.352;2023-05-14T01:03:26;1.92;;;1.58;;
43311;SDS011;30041;48.300;16.352;2023-05-14T01:08:57;2.50;;;2.00;;
43311;SDS011;30041;48.300;16.352;2023-05-14T01:16:36;2.50;;;1.90;;
43311;SDS011;30041;48.300;16.352;2023-05-14T01:19:04;2.20;;;1.90;;
43311;SDS011;30041;48.300;16.352;2023-05-14T01:21:38;2.13;;;1.83;;
43311;SDS011;30041;48.300;16.352;2023-05-14T01:24:06;2.55;;;1.80;;
43311;SDS011;30041;48.300;16.352;2023-05-14T01:26:32;2.78;;;1.80;;
43311;SDS011;30041;48.300;16.352;2023-05-14T01:29:00;2.55;;;1.80;;
43311;SDS011;30041;48.300;16.352;2023-05-14T01:31:33;2.60;;;2.00;;
43311;SDS011;30041;48.300;16.352;2023-05-14T01:34:00;2.67;;;1.85;;
43311;SDS011;30041;48.300;16.352;2023-05-14T01:36:29;3.30;;;1.80;;
43311;SDS011;30041;48.300;16.352;2023-05-14T01:38:55;3.13;;;2.05;;
43311;SDS011;30041;48.300;16.352;2023-05-14T01:41:22;2.17;;;1.67;;
43311;SDS011;30041;48.300;16.352;2023-05-14T01:43:49;2.47;;;1.77;;
43311;SDS011;30041;48.300;16.352;2023-05-14T01:49:10;2.10;;;1.70;;
43311;SDS011;30041;48.300;16.352;2023-05-14T01:51:35;2.10;;;1.70;;
43311;SDS011;30041;48.300;16.352;2023-05-14T01:54:01;2.25;;;1.83;;
43311;SDS011;30041;48.300;16.352;2023-05-14T01:56:26;3.25;;;1.90;;
43311;SDS011;30041;48.300;16.352;2023-05-14T01:58:52;2.92;;;2.00;;
43311;SDS011;30041;48.300;16.352;2023-05-14T02:01:17;2.30;;;1.75;;
43311;SDS011;30041;48.300;16.352;2023-05-14T02:03:42;3.03;;;1.77;;
43311;SDS011;30041;48.300;16.352;2023-05-14T02:06:08;2.40;;;1.70;;
43311;SDS011;30041;48.300;16.352;2023-05-14T02:08:33;2.20;;;1.73;;
43311;SDS011;30041;48.300;16.352;2023-05-14T02:10:59;2.10;;;1.58;;
43311;SDS011;30041;48.300;16.352;2023-05-14T02:13:24;3.00;;;1.83;;
43311;SDS011;30041;48.300;16.352;2023-05-14T02:15:50;2.42;;;1.88;;
43311;SDS011;30041;48.300;16.352;2023-05-14T02:18:15;2.42;;;1.77;;
43311;SDS011;30041;48.300;16.352;2023-05-14T02:20:41;2.47;;;1.73;;
43311;SDS011;30041;48.300;16.352;2023-05-14T02:23:06;2.72;;;1.85;;
43311;SDS011;30041;48.300;16.352;2023-05-14T02:25:32;2.30;;;1.77;;
43311;SDS011;30041;48.300;16.352;2023-05-14T02:27:57;2.38;;;1.80;;
43311;SDS011;30041;48.300;16.352;2023-05-14T02:30:22;2.33;;;1.60;;
43311;SDS011;30041;48.300;16.352;2023-05-14T02:32:48;3.35;;;1.85;;
43311;SDS011;30041;48.300;16.352;2023-05-14T02:35:13;2.35;;;1.70;;
43311;SDS011;30041;48.300;16.352;2023-05-14T02:37:39;2.30;;;1.80;;
43311;SDS011;30041;48.300;16.352;2023-05-14T02:40:04;2.03;;;1.50;;
43311;SDS011;30041;48.300;16.352;2023-05-14T02:42:30;2.78;;;1.55;;
43311;SDS011;30041;48.300;16.352;2023-05-14T02:44:56;1.92;;;1.50;;
43311;SDS011;30041;48.300;16.352;2023-05-14T02:47:21;2.05;;;1.40;;
43311;SDS011;30041;48.300;16.352;2023-05-14T02:49:47;2.30;;;1.83;;
43311;SDS011;30041;48.300;16.352;2023-05-14T02:52:12;2.70;;;1.83;;
43311;SDS011;30041;48.300;16.352;2023-05-14T02:54:37;2.90;;;1.80;;
43311;SDS011;30041;48.300;16.352;2023-05-14T02:57:03;2.03;;;1.70;;
43311;SDS011;30041;48.300;16.352;2023-05-14T02:59:28;1.70;;;1.52;;
43311;SDS011;30041;48.300;16.352;2023-05-14T03:01:54;2.00;;;1.58;;
43311;SDS011;30041;48.300;16.352;2023-05-14T03:04:19;2.13;;;1.60;;
43311;SDS011;30041;48.300;16.352;2023-05-14T03:06:45;2.47;;;1.70;;
43311;SDS011;30041;48.300;16.352;2023-05-14T03:09:10;2.10;;;1.63;;
43311;SDS011;30041;48.300;16.352;2023-05-14T03:11:36;2.67;;;1.73;;
43311;SDS011;30041;48.300;16.352;2023-05-14T03:14:01;2.17;;;1.60;;
43311;SDS011;30041;48.300;16.352;2023-05-14T03:16:26;1.90;;;1.48;;
43311;SDS011;30041;48.300;16.352;2023-05-14T03:18:52;2.28;;;1.60;;
43311;SDS011;30041;48.300;16.352;2023-05-14T03:21:17;2.38;;;1.42;;
43311;SDS011;30041;48.300;16.352;2023-05-14T03:23:43;1.70;;;1.45;;
43311;SDS011;30041;48.300;16.352;2023-05-14T03:26:08;2.03;;;1.63;;
43311;SDS011;30041;48.300;16.352;2023-05-14T03:28:34;2.00;;;1.58;;
43311;SDS011;30041;48.300;16.352;2023-05-14T03:30:59;1.65;;;1.40;;
43311;SDS011;30041;48.300;16.352;2023-05-14T03:33:25;2.08;;;1.50;;
43311;SDS011;30041;48.300;16.352;2023-05-14T03:35:50;1.60;;;1.40;;
43311;SDS011;30041;48.300;16.352;2023-05-14T03:38:16;2.28;;;1.50;;
43311;SDS011;30041;48.300;16.352;2023-05-14T03:40:42;1.88;;;1.58;;
43311;SDS011;30041;48.300;16.352;2023-05-14T03:43:08;2.50;;;1.70;;
43311;SDS011;30041;48.300;16.352;2023-05-14T03:45:33;1.60;;;1.42;;
43311;SDS011;30041;48.300;16.352;2023-05-14T03:47:59;2.50;;;1.50;;
43311;SDS011;30041;48.300;16.352;2023-05-14T03:50:24;2.20;;;1.70;;
43311;SDS011;30041;48.300;16.352;2023-05-14T03:52:52;2.00;;;1.70;;
43311;SDS011;30041;48.300;16.352;2023-05-14T03:55:18;2.40;;;1.70;;
43311;SDS011;30041;48.300;16.352;2023-05-14T03:57:44;2.20;;;1.60;;
43311;SDS011;30041;48.300;16.352;2023-05-14T04:00:09;1.67;;;1.27;;
43311;SDS011;30041;48.300;16.352;2023-05-14T04:02:35;1.60;;;1.40;;
43311;SDS011;30041;48.300;16.352;2023-05-14T04:05:01;1.80;;;1.40;;
43311;SDS011;30041;48.300;16.352;2023-05-14T04:07:27;2.00;;;1.60;;
43311;SDS011;30041;48.300;16.352;2023-05-14T04:09:52;3.17;;;1.60;;
43311;SDS011;30041;48.300;16.352;2023-05-14T04:12:17;1.67;;;1.33;;
43311;SDS011;30041;48.300;16.352;2023-05-14T04:14:43;1.85;;;1.50;;
43311;SDS011;30041;48.300;16.352;2023-05-14T04:17:08;2.00;;;1.45;;
43311;SDS011;30041;48.300;16.352;2023-05-14T04:19:34;1.67;;;1.40;;
43311;SDS011;30041;48.300;16.352;2023-05-14T04:21:59;1.95;;;1.40;;
43311;SDS011;30041;48.300;16.352;2023-05-14T04:24:24;1.55;;;1.30;;
43311;SDS011;30041;48.300;16.352;2023-05-14T04:26:50;1.77;;;1.38;;
43311;SDS011;30041;48.300;16.352;2023-05-14T04:29:15;3.28;;;1.30;;
43311;SDS011;30041;48.300;16.352;2023-05-14T04:31:41;1.60;;;1.35;;
43311;SDS011;30041;48.300;16.352;2023-05-14T04:34:06;1.90;;;1.50;;
43311;SDS011;30041;48.300;16.352;2023-05-14T04:36:31;2.67;;;1.45;;
43311;SDS011;30041;48.300;16.352;2023-05-14T04:38:57;1.88;;;1.48;;
43311;SDS011;30041;48.300;16.352;2023-05-14T04:41:22;1.65;;;1.40;;
43311;SDS011;30041;48.300;16.352;2023-05-14T04:43:48;1.50;;;1.20;;
43311;SDS011;30041;48.300;16.352;2023-05-14T04:46:14;1.73;;;1.40;;
43311;SDS011;30041;48.300;16.352;2023-05-14T04:48:39;1.65;;;1.30;;
43311;SDS011;30041;48.300;16.352;2023-05-14T04:51:05;1.63;;;1.10;;
43311;SDS011;30041;48.300;16.352;2023-05-14T04:53:30;1.58;;;1.33;;
43311;SDS011;30041;48.300;16.352;2023-05-14T04:55:56;1.30;;;1.20;;
43311;SDS011;30041;48.300;16.352;2023-05-14T04:58:21;1.52;;;1.20;;
43311;SDS011;30041;48.300;16.352;2023-05-14T05:00:47;1.42;;;1.30;;
43311;SDS011;30041;48.300;16.352;2023-05-14T05:03:12;4.20;;;1.30;;
43311;SDS011;30041;48.300;16.352;2023-05-14T05:05:37;2.83;;;1.50;;
43311;SDS011;30041;48.300;16.352;2023-05-14T05:08:03;3.08;;;1.70;;
43311;SDS011;30041;48.300;16.352;2023-05-14T05:10:28;4.60;;;2.00;;
43311;SDS011;30041;48.300;16.352;2023-05-14T05:12:54;4.13;;;2.63;;
43311;SDS011;30041;48.300;16.352;2023-05-14T05:15:19;5.22;;;2.40;;
43311;SDS011;30041;48.300;16.352;2023-05-14T05:17:45;4.55;;;2.58;;
43311;SDS011;30041;48.300;16.352;2023-05-14T05:20:10;5.93;;;2.55;;
43311;SDS011;30041;48.300;16.352;2023-05-14T05:22:36;3.60;;;2.40;;
43311;SDS011;30041;48.300;16.352;2023-05-14T05:25:01;5.72;;;2.55;;
43311;SDS011;30041;48.300;16.352;2023-05-14T05:27:27;7.53;;;2.33;;
43311;SDS011;30041;48.300;16.352;2023-05-14T05:29:52;4.05;;;2.20;;
43311;SDS011;30041;48.300;16.352;2023-05-14T05:32:18;3.58;;;2.20;;
43311;SDS011;30041;48.300;16.352;2023-05-14T05:34:43;4.50;;;2.30;;
43311;SDS011;30041;48.300;16.352;2023-05-14T05:37:09;3.03;;;2.13;;
43311;SDS011;30041;48.300;16.352;2023-05-14T05:39:34;4.10;;;2.08;;
43311;SDS011;30041;48.300;16.352;2023-05-14T05:42:00;3.67;;;2.00;;
43311;SDS011;30041;48.300;16.352;2023-05-14T05:44:26;4.63;;;2.10;;
43311;SDS011;30041;48.300;16.352;2023-05-14T05:46:51;2.80;;;1.80;;
43311;SDS011;30041;48.300;16.352;2023-05-14T05:49:17;7.60;;;2.10;;
43311;SDS011;30041;48.300;16.352;2023-05-14T05:51:42;4.05;;;2.00;;
43311;SDS011;30041;48.300;16.352;2023-05-14T05:54:08;3.63;;;2.22;;
43311;SDS011;30041;48.300;16.352;2023-05-14T05:56:33;5.60;;;2.30;;
43311;SDS011;30041;48.300;16.352;2023-05-14T05:58:59;3.38;;;2.08;;
43311;SDS011;30041;48.300;16.352;2023-05-14T06:01:24;4.05;;;2.17;;
43311;SDS011;30041;48.300;16.352;2023-05-14T06:03:50;4.25;;;1.92;;
43311;SDS011;30041;48.300;16.352;2023-05-14T06:06:15;4.05;;;2.05;;
43311;SDS011;30041;48.300;16.352;2023-05-14T06:08:40;3.33;;;2.00;;
43311;SDS011;30041;48.300;16.352;2023-05-14T06:11:06;3.08;;;1.90;;
43311;SDS011;30041;48.300;16.352;2023-05-14T06:13:31;5.28;;;2.65;;
43311;SDS011;30041;48.300;16.352;2023-05-14T06:15:57;3.30;;;1.90;;
43311;SDS011;30041;48.300;16.352;2023-05-14T06:18:22;3.53;;;1.90;;
43311;SDS011;30041;48.300;16.352;2023-05-14T06:20:48;4.18;;;1.80;;
43311;SDS011;30041;48.300;16.352;2023-05-14T06:23:13;5.97;;;1.80;;
43311;SDS011;30041;48.300;16.352;2023-05-14T06:25:39;3.35;;;2.00;;
43311;SDS011;30041;48.300;16.352;2023-05-14T06:28:04;4.47;;;2.08;;
43311;SDS011;30041;48.300;16.352;2023-05-14T06:30:29;3.15;;;2.00;;
43311;SDS011;30041;48.300;16.352;2023-05-14T06:32:55;3.75;;;1.80;;
43311;SDS011;30041;48.300;16.352;2023-05-14T06:35:20;3.42;;;2.08;;
43311;SDS011;30041;48.300;16.352;2023-05-14T06:37:47;3.97;;;1.88;;
43311;SDS011;30041;48.300;16.352;2023-05-14T06:40:12;4.55;;;1.92;;
43311;SDS011;30041;48.300;16.352;2023-05-14T06:42:38;2.58;;;1.77;;
43311;SDS011;30041;48.300;16.352;2023-05-14T06:45:04;3.00;;;1.70;;
43311;SDS011;30041;48.300;16.352;2023-05-14T06:47:30;4.97;;;2.10;;
43311;SDS011;30041;48.300;16.352;2023-05-14T06:49:55;3.15;;;1.70;;
43311;SDS011;30041;48.300;16.352;2023-05-14T06:52:21;3.83;;;1.90;;
43311;SDS011;30041;48.300;16.352;2023-05-14T06:54:46;3.72;;;1.67;;
43311;SDS011;30041;48.300;16.352;2023-05-14T06:57:11;3.83;;;1.67;;
43311;SDS011;30041;48.300;16.352;2023-05-14T06:59:37;3.55;;;1.70;;
43311;SDS011;30041;48.300;16.352;2023-05-14T07:02:02;3.60;;;1.88;;
43311;SDS011;30041;48.300;16.352;2023-05-14T07:04:28;3.75;;;1.88;;
43311;SDS011;30041;48.300;16.352;2023-05-14T07:06:53;4.10;;;2.10;;
43311;SDS011;30041;48.300;16.352;2023-05-14T07:09:18;4.75;;;2.10;;
43311;SDS011;30041;48.300;16.352;2023-05-14T07:11:44;6.03;;;2.30;;
43311;SDS011;30041;48.300;16.352;2023-05-14T07:14:09;3.90;;;2.55;;
43311;SDS011;30041;48.300;16.352;2023-05-14T07:16:35;3.65;;;2.55;;
43311;SDS011;30041;48.300;16.352;2023-05-14T07:19:01;4.03;;;2.90;;
43311;SDS011;30041;48.300;16.352;2023-05-14T07:21:26;3.50;;;2.97;;
43311;SDS011;30041;48.300;16.352;2023-05-14T07:23:52;4.97;;;3.10;;
43311;SDS011;30041;48.300;16.352;2023-05-14T07:26:17;5.28;;;3.15;;
43311;SDS011;30041;48.300;16.352;2023-05-14T07:28:43;6.40;;;3.33;;
43311;SDS011;30041;48.300;16.352;2023-05-14T07:31:08;4.60;;;3.50;;
43311;SDS011;30041;48.300;16.352;2023-05-14T07:33:34;5.85;;;4.00;;
43311;SDS011;30041;48.300;16.352;2023-05-14T07:35:59;6.35;;;4.22;;
43311;SDS011;30041;48.300;16.352;2023-05-14T07:38:25;5.85;;;4.30;;
43311;SDS011;30041;48.300;16.352;2023-05-14T07:40:50;6.40;;;4.57;;
43311;SDS011;30041;48.300;16.352;2023-05-14T07:43:16;6.15;;;4.70;;
43311;SDS011;30041;48.300;16.352;2023-05-14T07:45:41;5.60;;;4.80;;
43311;SDS011;30041;48.300;16.352;2023-05-14T07:48:07;7.97;;;5.60;;
43311;SDS011;30041;48.300;16.352;2023-05-14T07:50:32;6.85;;;5.50;;
43311;SDS011;30041;48.300;16.352;2023-05-14T07:52:58;7.10;;;5.30;;
43311;SDS011;30041;48.300;16.352;2023-05-14T07:55:23;6.15;;;5.43;;
43311;SDS011;30041;48.300;16.352;2023-05-14T07:57:48;6.63;;;5.13;;
43311;SDS011;30041;48.300;16.352;2023-05-14T08:00:14;7.43;;;5.57;;
43311;SDS011;30041;48.300;16.352;2023-05-14T08:02:40;8.63;;;5.63;;
43311;SDS011;30041;48.300;16.352;2023-05-14T08:05:05;6.68;;;5.53;;
43311;SDS011;30041;48.300;16.352;2023-05-14T08:07:31;7.63;;;5.38;;
43311;SDS011;30041;48.300;16.352;2023-05-14T08:09:56;5.82;;;5.15;;
43311;SDS011;30041;48.300;16.352;2023-05-14T08:12:22;7.00;;;4.88;;
43311;SDS011;30041;48.300;16.352;2023-05-14T08:14:47;6.47;;;5.07;;
43311;SDS011;30041;48.300;16.352;2023-05-14T08:17:13;6.13;;;5.07;;
43311;SDS011;30041;48.300;16.352;2023-05-14T08:19:38;6.38;;;4.68;;
43311;SDS011;30041;48.300;16.352;2023-05-14T08:22:04;6.15;;;4.55;;
43311;SDS011;30041;48.300;16.352;2023-05-14T08:24:29;6.28;;;4.50;;
43311;SDS011;30041;48.300;16.352;2023-05-14T08:26:55;5.40;;;4.70;;
43311;SDS011;30041;48.300;16.352;2023-05-14T08:29:20;6.57;;;4.28;;
43311;SDS011;30041;48.300;16.352;2023-05-14T08:31:46;6.03;;;4.57;;
43311;SDS011;30041;48.300;16.352;2023-05-14T08:34:13;4.90;;;4.00;;
43311;SDS011;30041;48.300;16.352;2023-05-14T08:36:38;4.63;;;3.80;;
43311;SDS011;30041;48.300;16.352;2023-05-14T08:39:04;6.22;;;3.50;;
43311;SDS011;30041;48.300;16.352;2023-05-14T08:41:29;5.25;;;3.50;;
43311;SDS011;30041;48.300;16.352;2023-05-14T08:46:49;3.85;;;3.13;;
43311;SDS011;30041;48.300;16.352;2023-05-14T08:54:29;3.43;;;2.63;;
43311;SDS011;30041;48.300;16.352;2023-05-14T08:56:55;4.25;;;2.80;;
43311;SDS011;30041;48.300;16.352;2023-05-14T08:59:20;4.43;;;2.95;;
43311;SDS011;30041;48.300;16.352;2023-05-14T09:01:46;6.13;;;3.28;;
43311;SDS011;30041;48.300;16.352;2023-05-14T09:04:14;6.07;;;2.95;;
43311;SDS011;30041;48.300;16.352;2023-05-14T09:06:42;6.95;;;2.83;;
43311;SDS011;30041;48.300;16.352;2023-05-14T09:09:08;6.50;;;3.20;;
43311;SDS011;30041;48.300;16.352;2023-05-14T09:11:39;6.10;;;2.80;;
43311;SDS011;30041;48.300;16.352;2023-05-14T09:14:05;7.25;;;2.88;;
43311;SDS011;30041;48.300;16.352;2023-05-14T09:16:30;7.55;;;2.88;;
43311;SDS011;30041;48.300;16.352;2023-05-14T09:18:56;5.85;;;2.45;;
43311;SDS011;30041;48.300;16.352;2023-05-14T09:21:22;6.22;;;3.17;;
43311;SDS011;30041;48.300;16.352;2023-05-14T09:23:47;5.25;;;2.40;;
43311;SDS011;30041;48.300;16.352;2023-05-14T09:26:17;4.90;;;2.25;;
43311;SDS011;30041;48.300;16.352;2023-05-14T09:28:47;3.22;;;2.15;;
43311;SDS011;30041;48.300;16.352;2023-05-14T09:31:12;4.13;;;2.20;;
43311;SDS011;30041;48.300;16.352;2023-05-14T09:33:38;4.65;;;2.40;;
43311;SDS011;30041;48.300;16.352;2023-05-14T09:36:03;5.25;;;2.28;;
43311;SDS011;30041;48.300;16.352;2023-05-14T09:38:29;2.25;;;1.67;;
43311;SDS011;30041;48.300;16.352;2023-05-14T09:40:56;3.97;;;1.70;;
43311;SDS011;30041;48.300;16.352;2023-05-14T09:43:23;2.97;;;1.92;;
43311;SDS011;30041;48.300;16.352;2023-05-14T09:45:48;5.80;;;2.30;;
43311;SDS011;30041;48.300;16.352;2023-05-14T09:48:14;14.63;;;2.65;;
43311;SDS011;30041;48.300;16.352;2023-05-14T09:50:43;4.85;;;2.28;;
43311;SDS011;30041;48.300;16.352;2023-05-14T09:53:10;8.05;;;2.70;;
43311;SDS011;30041;48.300;16.352;2023-05-14T09:55:36;4.20;;;2.35;;
43311;SDS011;30041;48.300;16.352;2023-05-14T09:58:02;3.65;;;2.20;;
43311;SDS011;30041;48.300;16.352;2023-05-14T10:00:31;3.47;;;2.10;;
43311;SDS011;30041;48.300;16.352;2023-05-14T10:02:58;4.07;;;2.10;;
43311;SDS011;30041;48.300;16.352;2023-05-14T10:05:29;3.45;;;2.08;;
43311;SDS011;30041;48.300;16.352;2023-05-14T10:07:59;7.32;;;2.47;;
43311;SDS011;30041;48.300;16.352;2023-05-14T10:10:29;3.63;;;2.50;;
43311;SDS011;30041;48.300;16.352;2023-05-14T10:12:57;6.18;;;2.38;;
43311;SDS011;30041;48.300;16.352;2023-05-14T10:15:29;5.22;;;2.13;;
43311;SDS011;30041;48.300;16.352;2023-05-14T10:18:02;3.63;;;2.08;;
43311;SDS011;30041;48.300;16.352;2023-05-14T10:20:37;4.18;;;2.00;;
43311;SDS011;30041;48.300;16.352;2023-05-14T10:23:04;4.28;;;2.22;;
43311;SDS011;30041;48.300;16.352;2023-05-14T10:25:30;3.72;;;2.15;;
43311;SDS011;30041;48.300;16.352;2023-05-14T10:27:56;4.03;;;2.20;;
43311;SDS011;30041;48.300;16.352;2023-05-14T10:30:22;3.33;;;2.20;;
43311;SDS011;30041;48.300;16.352;2023-05-14T10:32:48;3.45;;;2.15;;
43311;SDS011;30041;48.300;16.352;2023-05-14T10:35:17;3.45;;;2.10;;
43311;SDS011;30041;48.300;16.352;2023-05-14T10:37:43;3.58;;;2.20;;
43311;SDS011;30041;48.300;16.352;2023-05-14T10:40:09;3.10;;;2.17;;
43311;SDS011;30041;48.300;16.352;2023-05-14T10:42:36;3.45;;;2.30;;
43311;SDS011;30041;48.300;16.352;2023-05-14T10:45:03;3.65;;;2.30;;
43311;SDS011;30041;48.300;16.352;2023-05-14T10:47:30;3.15;;;2.17;;
43311;SDS011;30041;48.300;16.352;2023-05-14T10:49:57;3.13;;;1.95;;
43311;SDS011;30041;48.300;16.352;2023-05-14T10:52:24;2.90;;;2.00;;
43311;SDS011;30041;48.300;16.352;2023-05-14T10:54:51;4.20;;;2.15;;
43311;SDS011;30041;48.300;16.352;2023-05-14T10:57:18;3.92;;;1.90;;
43311;SDS011;30041;48.300;16.352;2023-05-14T10:59:46;4.90;;;2.42;;
43311;SDS011;30041;48.300;16.352;2023-05-14T11:02:19;4.22;;;2.00;;
43311;SDS011;30041;48.300;16.352;2023-05-14T11:07:27;2.95;;;1.98;;
43311;SDS011;30041;48.300;16.352;2023-05-14T11:10:14;3.35;;;2.03;;
43311;SDS011;30041;48.300;16.352;2023-05-14T11:12:45;3.35;;;1.88;;
43311;SDS011;30041;48.300;16.352;2023-05-14T11:15:14;2.90;;;1.90;;
43311;SDS011;30041;48.300;16.352;2023-05-14T11:17:42;3.00;;;1.95;;
43311;SDS011;30041;48.300;16.352;2023-05-14T11:20:08;4.03;;;2.25;;
43311;SDS011;30041;48.300;16.352;2023-05-14T11:22:35;2.85;;;1.92;;
43311;SDS011;30041;48.300;16.352;2023-05-14T11:25:02;5.85;;;1.90;;
43311;SDS011;30041;48.300;16.352;2023-05-14T11:27:28;4.65;;;2.03;;
43311;SDS011;30041;48.300;16.352;2023-05-14T11:29:54;4.07;;;1.92;;
43311;SDS011;30041;48.300;16.352;2023-05-14T11:32:19;5.50;;;2.05;;
43311;SDS011;30041;48.300;16.352;2023-05-14T11:34:45;6.20;;;1.98;;
43311;SDS011;30041;48.300;16.352;2023-05-14T11:37:12;4.13;;;1.92;;
43311;SDS011;30041;48.300;16.352;2023-05-14T11:39:38;8.02;;;2.10;;
43311;SDS011;30041;48.300;16.352;2023-05-14T11:42:10;2.83;;;1.77;;
43311;SDS011;30041;48.300;16.352;2023-05-14T11:44:40;4.07;;;1.60;;
43311;SDS011;30041;48.300;16.352;2023-05-14T11:47:05;3.47;;;1.60;;
43311;SDS011;30041;48.300;16.352;2023-05-14T11:49:31;3.13;;;1.80;;
43311;SDS011;30041;48.300;16.352;2023-05-14T11:51:59;4.07;;;1.60;;
43311;SDS011;30041;48.300;16.352;2023-05-14T11:54:29;2.53;;;1.63;;
43311;SDS011;30041;48.300;16.352;2023-05-14T11:56:56;3.55;;;1.80;;
43311;SDS011;30041;48.300;16.352;2023-05-14T11:59:26;3.40;;;1.77;;
43311;SDS011;30041;48.300;16.352;2023-05-14T12:01:56;2.88;;;1.52;;
43311;SDS011;30041;48.300;16.352;2023-05-14T12:04:22;2.20;;;1.63;;
43311;SDS011;30041;48.300;16.352;2023-05-14T12:06:51;1.92;;;1.33;;
43311;SDS011;30041;48.300;16.352;2023-05-14T12:09:20;3.25;;;2.00;;
43311;SDS011;30041;48.300;16.352;2023-05-14T12:11:47;3.05;;;1.95;;
43311;SDS011;30041;48.300;16.352;2023-05-14T12:14:14;2.85;;;1.52;;
43311;SDS011;30041;48.300;16.352;2023-05-14T12:16:41;2.55;;;1.60;;
43311;SDS011;30041;48.300;16.352;2023-05-14T12:19:08;3.28;;;1.50;;
43311;SDS011;30041;48.300;16.352;2023-05-14T12:21:35;3.33;;;1.60;;
43311;SDS011;30041;48.300;16.352;2023-05-14T12:24:00;2.70;;;1.50;;
43311;SDS011;30041;48.300;16.352;2023-05-14T12:32:21;2.28;;;1.50;;
43311;SDS011;30041;48.300;16.352;2023-05-14T12:34:52;2.90;;;1.63;;
43311;SDS011;30041;48.300;16.352;2023-05-14T12:37:17;2.97;;;1.48;;
43311;SDS011;30041;48.300;16.352;2023-05-14T12:39:43;3.17;;;1.67;;
43311;SDS011;30041;48.300;16.352;2023-05-14T12:42:08;2.85;;;1.80;;
43311;SDS011;30041;48.300;16.352;2023-05-14T12:44:34;3.55;;;1.65;;
43311;SDS011;30041;48.300;16.352;2023-05-14T12:47:00;2.78;;;1.52;;
43311;SDS011;30041;48.300;16.352;2023-05-14T12:49:26;5.15;;;1.90;;
43311;SDS011;30041;48.300;16.352;2023-05-14T12:51:51;3.72;;;1.50;;
43311;SDS011;30041;48.300;16.352;2023-05-14T12:54:17;2.28;;;1.42;;
43311;SDS011;30041;48.300;16.352;2023-05-14T12:56:42;2.60;;;1.50;;
43311;SDS011;30041;48.300;16.352;2023-05-14T12:59:08;6.28;;;1.92;;
43311;SDS011;30041;48.300;16.352;2023-05-14T13:01:33;4.00;;;1.58;;
43311;SDS011;30041;48.300;16.352;2023-05-14T13:03:59;3.45;;;1.67;;
43311;SDS011;30041;48.300;16.352;2023-05-14T13:06:24;5.10;;;1.70;;
43311;SDS011;30041;48.300;16.352;2023-05-14T13:08:50;7.00;;;1.48;;
43311;SDS011;30041;48.300;16.352;2023-05-14T13:11:15;5.60;;;1.75;;
43311;SDS011;30041;48.300;16.352;2023-05-14T13:13:41;4.03;;;1.52;;
43311;SDS011;30041;48.300;16.352;2023-05-14T13:16:07;3.80;;;1.50;;
43311;SDS011;30041;48.300;16.352;2023-05-14T13:18:33;6.32;;;1.75;;
43311;SDS011;30041;48.300;16.352;2023-05-14T13:20:58;4.03;;;1.65;;
43311;SDS011;30041;48.300;16.352;2023-05-14T13:23:24;5.35;;;1.98;;
43311;SDS011;30041;48.300;16.352;2023-05-14T13:25:50;3.42;;;1.65;;
43311;SDS011;30041;48.300;16.352;2023-05-14T13:28:16;4.80;;;1.75;;
43311;SDS011;30041;48.300;16.352;2023-05-14T13:30:43;4.70;;;1.60;;
43311;SDS011;30041;48.300;16.352;2023-05-14T13:35:53;3.27;;;1.50;;
43311;SDS011;30041;48.300;16.352;2023-05-14T13:38:19;3.25;;;1.50;;
43311;SDS011;30041;48.300;16.352;2023-05-14T13:40:44;6.25;;;1.88;;
43311;SDS011;30041;48.300;16.352;2023-05-14T13:43:10;3.38;;;1.65;;
43311;SDS011;30041;48.300;16.352;2023-05-14T13:45:35;2.92;;;1.70;;
43311;SDS011;30041;48.300;16.352;2023-05-14T13:48:01;3.67;;;1.50;;
43311;SDS011;30041;48.300;16.352;2023-05-14T13:50:26;2.53;;;1.52;;
43311;SDS011;30041;48.300;16.352;2023-05-14T13:52:52;5.22;;;1.23;;
43311;SDS011;30041;48.300;16.352;2023-05-14T13:55:17;3.58;;;1.40;;
43311;SDS011;30041;48.300;16.352;2023-05-14T13:57:43;3.10;;;1.20;;
43311;SDS011;30041;48.300;16.352;2023-05-14T14:00:09;2.72;;;1.48;;
43311;SDS011;30041;48.300;16.352;2023-05-14T14:02:35;3.10;;;1.27;;
43311;SDS011;30041;48.300;16.352;2023-05-14T14:05:00;1.75;;;1.20;;
43311;SDS011;30041;48.300;16.352;2023-05-14T14:07:26;2.40;;;1.13;;
43311;SDS011;30041;48.300;16.352;2023-05-14T14:09:51;4.70;;;1.40;;
43311;SDS011;30041;48.300;16.352;2023-05-14T14:12:19;3.28;;;1.42;;
43311;SDS011;30041;48.300;16.352;2023-05-14T14:14:44;1.85;;;1.42;;
43311;SDS011;30041;48.300;16.352;2023-05-14T14:17:10;2.85;;;1.10;;
43311;SDS011;30041;48.300;16.352;2023-05-14T14:19:36;2.88;;;1.50;;
43311;SDS011;30041;48.300;16.352;2023-05-14T14:22:01;2.15;;;1.30;;
43311;SDS011;30041;48.300;16.352;2023-05-14T14:24:27;2.17;;;1.10;;
43311;SDS011;30041;48.300;16.352;2023-05-14T14:26:53;4.95;;;1.52;;
43311;SDS011;30041;48.300;16.352;2023-05-14T14:29:19;2.97;;;1.20;;
43311;SDS011;30041;48.300;16.352;2023-05-14T14:31:45;4.03;;;1.25;;
43311;SDS011;30041;48.300;16.352;2023-05-14T14:34:11;2.47;;;1.30;;
43311;SDS011;30041;48.300;16.352;2023-05-14T14:36:36;2.63;;;1.30;;
43311;SDS011;30041;48.300;16.352;2023-05-14T14:39:02;5.80;;;1.48;;
43311;SDS011;30041;48.300;16.352;2023-05-14T14:41:28;4.18;;;1.63;;
43311;SDS011;30041;48.300;16.352;2023-05-14T14:43:54;4.40;;;1.27;;
43311;SDS011;30041;48.300;16.352;2023-05-14T14:46:20;3.50;;;1.50;;
43311;SDS011;30041;48.300;16.352;2023-05-14T14:48:49;2.58;;;1.23;;
43311;SDS011;30041;48.300;16.352;2023-05-14T14:51:15;4.40;;;1.70;;
43311;SDS011;30041;48.300;16.352;2023-05-14T14:53:41;4.88;;;1.50;;
43311;SDS011;30041;48.300;16.352;2023-05-14T14:56:07;2.63;;;1.38;;